Terminal Aerodrome Forecast
Issued by NWS Twin Cities, MN

Home | Current Version | Previous Version | Text Only | Print | Product List | Glossary On
Versions: 1 2 3 4 5 6 7 8 9 10 11 12 13 14 15 16 17 18 19 20 21 22 23 24 25
000
FTUS43 KMPX 251400 AAA
TAFMSP
TAF AMD
KMSP 251446Z 2515/2618 17009KT P6SM BKN015 OVC040
     FM251800 18007KT P6SM BKN040
     FM252200 21007KT P6SM BKN050
     FM260200 30005KT P6SM FEW040=

USA.gov is the U.S. government's official web portal to all federal, state and local government web resources and services.